Time;durP1;ratioP1;P1;durP2;ratioP2;P2;SDS_P1;SDS_P2;PMS_P1;PMS_P2;Temp;Humidity;BMP_temperature;BMP_pressure;BME280_temperature;BME280_humidity;BME280_pressure;Samples;Min_cycle;Max_cycle;Signal;HPM_P1;HPM_P2
2021/10/26 00:01:08;;;;;;;12.90;11.60;;;;;;;;;;5103864;28;24404;-59
2021/10/26 00:03:34;;;;;;;13.93;12.25;;;;;;;;;;5102034;28;24400;-58
2021/10/26 00:05:59;;;;;;;13.23;11.38;;;;;;;;;;5103315;28;24396;-58
2021/10/26 00:08:24;;;;;;;12.80;11.50;;;;;;;;;;5106834;28;24721;-58
2021/10/26 00:10:49;;;;;;;12.52;11.23;;;;;;;;;;5106976;28;24951;-58
2021/10/26 00:13:15;;;;;;;13.47;11.87;;;;;;;;;;5105595;28;24957;-58
2021/10/26 00:15:40;;;;;;;13.07;11.67;;;;;;;;;;5101424;28;24437;-59
2021/10/26 00:18:05;;;;;;;13.10;11.80;;;;;;;;;;5103054;28;24390;-59
2021/10/26 00:20:31;;;;;;;13.50;11.90;;;;;;;;;;5103747;28;25161;-59
2021/10/26 00:22:56;;;;;;;14.50;12.03;;;;;;;;;;5106650;28;24385;-59
2021/10/26 00:25:21;;;;;;;13.60;12.10;;;;;;;;;;5105033;28;24389;-58
2021/10/26 00:27:47;;;;;;;12.50;11.40;;;;;;;;;;5106837;28;24394;-59
2021/10/26 00:30:12;;;;;;;12.87;11.60;;;;;;;;;;5103084;28;24392;-58
2021/10/26 00:32:37;;;;;;;13.33;11.93;;;;;;;;;;5093086;28;24448;-58
2021/10/26 00:35:03;;;;;;;13.40;12.00;;;;;;;;;;5082724;28;24411;-60
2021/10/26 00:37:29;;;;;;;13.70;11.70;;;;;;;;;;5082532;28;24489;-59
2021/10/26 00:39:54;;;;;;;13.40;11.90;;;;;;;;;;5085936;28;24426;-58
2021/10/26 00:42:19;;;;;;;13.47;12.07;;;;;;;;;;5084504;28;24454;-59
2021/10/26 00:44:44;;;;;;;13.27;11.32;;;;;;;;;;5082637;28;25086;-59
2021/10/26 00:47:09;;;;;;;12.40;11.10;;;;;;;;;;5082162;28;24434;-59
2021/10/26 00:49:35;;;;;;;13.65;12.25;;;;;;;;;;5082490;28;24443;-59
2021/10/26 00:52:00;;;;;;;12.50;11.13;;;;;;;;;;5079393;28;24753;-59
2021/10/26 00:54:25;;;;;;;13.57;12.17;;;;;;;;;;5085795;28;24963;-58
2021/10/26 00:56:51;;;;;;;13.50;12.10;;;;;;;;;;5085755;28;24757;-59
2021/10/26 00:59:16;;;;;;;14.18;12.60;;;;;;;;;;5082364;28;24897;-59
2021/10/26 01:01:41;;;;;;;14.30;12.73;;;;;;;;;;5080115;28;24402;-59
2021/10/26 01:04:06;;;;;;;13.43;12.13;;;;;;;;;;5081912;28;24548;-59
2021/10/26 01:06:32;;;;;;;11.93;10.82;;;;;;;;;;5082197;28;24721;-59
2021/10/26 01:08:57;;;;;;;13.13;11.50;;;;;;;;;;5085303;28;25361;-59
2021/10/26 01:11:22;;;;;;;14.60;11.90;;;;;;;;;;5083753;28;24451;-59
2021/10/26 01:13:47;;;;;;;12.30;11.10;;;;;;;;;;5083820;28;24464;-59
2021/10/26 01:16:12;;;;;;;13.73;12.43;;;;;;;;;;5082006;28;24389;-59
2021/10/26 01:18:38;;;;;;;13.70;12.40;;;;;;;;;;5079550;28;24745;-59
2021/10/26 01:21:03;;;;;;;13.70;12.30;;;;;;;;;;5083458;28;24445;-59
2021/10/26 01:23:29;;;;;;;13.80;12.50;;;;;;;;;;5083449;28;24721;-59
2021/10/26 01:25:54;;;;;;;14.83;13.33;;;;;;;;;;5085370;28;24493;-62
2021/10/26 01:28:20;;;;;;;13.83;12.07;;;;;;;;;;5083282;28;24441;-58
2021/10/26 01:30:45;;;;;;;14.03;12.53;;;;;;;;;;5079520;28;24442;-59
2021/10/26 01:33:10;;;;;;;14.40;12.90;;;;;;;;;;5093313;28;24489;-60
2021/10/26 01:35:36;;;;;;;15.33;13.07;;;;;;;;;;5103004;28;24378;-60
2021/10/26 01:38:02;;;;;;;15.10;13.37;;;;;;;;;;5105213;28;24816;-60
2021/10/26 01:40:27;;;;;;;14.73;12.30;;;;;;;;;;5103593;28;25020;-60
2021/10/26 01:42:52;;;;;;;14.80;12.13;;;;;;;;;;5105517;28;24474;-60
2021/10/26 01:45:17;;;;;;;13.70;12.13;;;;;;;;;;5100143;28;24505;-60
2021/10/26 01:47:43;;;;;;;14.83;13.30;;;;;;;;;;5099637;28;24436;-60
2021/10/26 01:50:09;;;;;;;14.80;13.20;;;;;;;;;;5101309;28;24393;-60
2021/10/26 01:52:34;;;;;;;14.82;13.30;;;;;;;;;;5103630;28;24879;-60
2021/10/26 01:55:00;;;;;;;14.60;13.17;;;;;;;;;;5103301;28;24417;-59
2021/10/26 01:57:27;;;;;;;14.50;12.90;;;;;;;;;;5103164;28;24409;-59
2021/10/26 01:59:52;;;;;;;16.52;13.48;;;;;;;;;;5105264;28;24470;-60
2021/10/26 02:02:18;;;;;;;15.25;13.00;;;;;;;;;;5099834;28;24477;-60
2021/10/26 02:04:43;;;;;;;16.17;13.30;;;;;;;;;;5099308;28;24424;-60
2021/10/26 02:07:08;;;;;;;14.63;13.10;;;;;;;;;;5102679;28;24404;-60
2021/10/26 02:09:33;;;;;;;13.90;12.50;;;;;;;;;;5101993;28;24535;-59
2021/10/26 02:11:59;;;;;;;14.93;13.33;;;;;;;;;;5104748;28;24457;-59
2021/10/26 02:14:24;;;;;;;14.57;13.07;;;;;;;;;;5103026;28;24429;-60
2021/10/26 02:16:49;;;;;;;15.40;13.80;;;;;;;;;;5103076;28;24920;-59
2021/10/26 02:19:15;;;;;;;17.73;14.00;;;;;;;;;;5100975;28;24394;-60
2021/10/26 02:21:40;;;;;;;15.23;13.63;;;;;;;;;;5099037;28;24741;-60
2021/10/26 02:24:06;;;;;;;16.10;13.50;;;;;;;;;;5103032;28;24394;-60
2021/10/26 02:26:31;;;;;;;13.93;12.20;;;;;;;;;;5104772;28;24957;-60
2021/10/26 02:28:57;;;;;;;15.50;13.90;;;;;;;;;;5104553;28;24405;-60
2021/10/26 02:31:22;;;;;;;16.13;14.43;;;;;;;;;;5100797;28;24425;-59
2021/10/26 02:33:47;;;;;;;16.57;14.97;;;;;;;;;;5081244;28;24544;-60
2021/10/26 02:36:12;;;;;;;15.85;13.55;;;;;;;;;;5078918;28;24464;-60
2021/10/26 02:38:37;;;;;;;15.27;13.77;;;;;;;;;;5081928;28;24410;-60
2021/10/26 02:41:02;;;;;;;15.85;14.27;;;;;;;;;;5084407;28;24477;-59
2021/10/26 02:43:29;;;;;;;15.35;13.85;;;;;;;;;;5082119;28;24935;-60
2021/10/26 02:45:55;;;;;;;15.35;13.85;;;;;;;;;;5081963;28;24410;-60
2021/10/26 02:48:20;;;;;;;14.97;13.33;;;;;;;;;;5078540;28;24395;-59
2021/10/26 02:50:45;;;;;;;14.70;13.10;;;;;;;;;;5080222;28;24448;-60
2021/10/26 02:53:10;;;;;;;16.05;13.75;;;;;;;;;;5080017;28;24389;-60
2021/10/26 02:55:35;;;;;;;16.07;14.23;;;;;;;;;;5082364;28;25102;-59
2021/10/26 02:58:00;;;;;;;16.27;13.50;;;;;;;;;;5083537;28;24395;-60
2021/10/26 03:00:26;;;;;;;15.10;13.70;;;;;;;;;;5082072;28;24467;-59
2021/10/26 03:02:51;;;;;;;15.50;13.80;;;;;;;;;;5080039;28;24374;-59
2021/10/26 03:05:16;;;;;;;15.93;14.33;;;;;;;;;;5080045;28;24752;-59
2021/10/26 03:07:42;;;;;;;17.27;15.57;;;;;;;;;;5077952;28;25000;-59
2021/10/26 03:10:08;;;;;;;14.85;13.23;;;;;;;;;;5079892;28;24810;-59
2021/10/26 03:12:33;;;;;;;15.95;14.27;;;;;;;;;;5084157;28;24397;-59
2021/10/26 03:14:59;;;;;;;14.80;13.30;;;;;;;;;;5083591;28;25030;-59
2021/10/26 03:17:25;;;;;;;17.87;14.40;;;;;;;;;;5085885;28;24405;-59
2021/10/26 03:19:50;;;;;;;16.20;14.40;;;;;;;;;;5082227;28;24379;-59
2021/10/26 03:22:15;;;;;;;16.03;14.37;;;;;;;;;;5082044;28;24408;-59
2021/10/26 03:24:40;;;;;;;17.73;15.43;;;;;;;;;;5085720;28;24430;-59
2021/10/26 03:27:05;;;;;;;15.10;13.50;;;;;;;;;;5087809;28;24402;-59
2021/10/26 03:29:31;;;;;;;15.93;14.33;;;;;;;;;;5086009;28;24398;-59
2021/10/26 03:31:56;;;;;;;17.00;13.73;;;;;;;;;;5089132;28;24491;-59
2021/10/26 03:34:22;;;;;;;15.70;14.10;;;;;;;;;;5102257;28;24440;-59
2021/10/26 03:36:47;;;;;;;15.27;13.48;;;;;;;;;;5102238;28;24995;-59
2021/10/26 03:39:12;;;;;;;16.80;15.00;;;;;;;;;;5103932;28;24394;-59
2021/10/26 03:41:38;;;;;;;16.57;14.87;;;;;;;;;;5107766;28;24389;-59
2021/10/26 03:44:03;;;;;;;16.70;14.87;;;;;;;;;;5107990;28;24998;-59
2021/10/26 03:46:28;;;;;;;17.17;14.27;;;;;;;;;;5105618;28;24394;-59
2021/10/26 03:48:53;;;;;;;17.13;14.10;;;;;;;;;;5105272;28;24416;-59
2021/10/26 03:51:19;;;;;;;16.10;14.40;;;;;;;;;;5101891;28;24389;-59
2021/10/26 03:53:44;;;;;;;16.43;14.67;;;;;;;;;;5103517;28;24513;-59
2021/10/26 03:56:09;;;;;;;16.33;14.13;;;;;;;;;;5103667;28;24479;-59
2021/10/26 03:58:36;;;;;;;15.20;13.60;;;;;;;;;;5107381;28;24442;-59
2021/10/26 04:01:02;;;;;;;15.15;13.55;;;;;;;;;;5107468;28;24797;-59
2021/10/26 04:03:27;;;;;;;15.43;13.93;;;;;;;;;;5101764;28;24437;-59
2021/10/26 04:08:26;;;;;;;16.08;13.75;;;;;;;;;;5101824;28;24400;-59
2021/10/26 04:10:53;;;;;;;15.60;14.00;;;;;;;;;;5107414;28;24388;-59
2021/10/26 04:13:20;;;;;;;15.00;13.50;;;;;;;;;;5105552;28;24943;-59
2021/10/26 04:15:45;;;;;;;14.77;13.32;;;;;;;;;;5106869;28;24448;-59
2021/10/26 04:18:10;;;;;;;15.53;13.93;;;;;;;;;;5102946;28;24474;-59
2021/10/26 04:20:35;;;;;;;16.50;14.80;;;;;;;;;;5101308;28;24721;-59
2021/10/26 04:23:00;;;;;;;15.40;13.80;;;;;;;;;;5101531;28;24397;-59
2021/10/26 04:25:26;;;;;;;14.40;12.90;;;;;;;;;;5105170;28;24934;-59
2021/10/26 04:27:51;;;;;;;16.03;14.33;;;;;;;;;;5106387;28;24414;-58
2021/10/26 04:30:16;;;;;;;15.37;13.47;;;;;;;;;;5104977;28;24919;-58
2021/10/26 04:32:41;;;;;;;15.23;13.73;;;;;;;;;;5096211;28;25301;-58
2021/10/26 04:35:09;;;;;;;15.07;13.48;;;;;;;;;;5081864;28;22379;-58
2021/10/26 04:37:35;;;;;;;15.73;14.13;;;;;;;;;;5080835;28;24393;-58
2021/10/26 04:40:02;;;;;;;14.82;13.32;;;;;;;;;;5082123;28;24394;-58
2021/10/26 04:42:27;;;;;;;14.30;12.77;;;;;;;;;;5086291;28;24929;-58
2021/10/26 04:44:52;;;;;;;15.10;13.50;;;;;;;;;;5086176;28;24960;-58
2021/10/26 04:47:22;;;;;;;16.95;13.73;;;;;;;;;;5084043;28;24408;-58
2021/10/26 04:49:47;;;;;;;16.63;13.98;;;;;;;;;;5080289;28;24398;-59
2021/10/26 04:52:12;;;;;;;16.77;14.23;;;;;;;;;;5082414;28;24409;-59
2021/10/26 04:54:37;;;;;;;15.27;13.43;;;;;;;;;;5080296;28;24453;-59
2021/10/26 04:57:03;;;;;;;15.90;14.20;;;;;;;;;;5086013;28;24788;-59
2021/10/26 04:59:28;;;;;;;17.07;15.23;;;;;;;;;;5083826;28;24380;-59
2021/10/26 05:01:53;;;;;;;16.00;14.00;;;;;;;;;;5085503;28;24481;-59
2021/10/26 05:04:18;;;;;;;17.10;14.67;;;;;;;;;;5080242;28;24425;-59
2021/10/26 05:06:43;;;;;;;15.82;13.35;;;;;;;;;;5080248;28;24395;-58
2021/10/26 05:09:09;;;;;;;17.55;14.75;;;;;;;;;;5082079;28;25041;-59
2021/10/26 05:11:34;;;;;;;19.48;15.50;;;;;;;;;;5083992;28;24382;-59
2021/10/26 05:13:59;;;;;;;15.77;14.07;;;;;;;;;;5085168;28;24418;-59
2021/10/26 05:16:26;;;;;;;15.60;13.80;;;;;;;;;;5082056;28;24403;-59
2021/10/26 05:18:54;;;;;;;16.30;14.60;;;;;;;;;;5079599;28;24520;-59
2021/10/26 05:21:21;;;;;;;17.00;15.20;;;;;;;;;;5079809;28;24406;-58
2021/10/26 05:23:48;;;;;;;16.45;14.75;;;;;;;;;;5085411;28;24761;-58
2021/10/26 05:26:13;;;;;;;17.33;15.20;;;;;;;;;;5083861;28;24810;-59
2021/10/26 05:28:39;;;;;;;16.03;14.33;;;;;;;;;;5082983;28;24545;-59
2021/10/26 05:31:04;;;;;;;16.05;14.30;;;;;;;;;;5081155;28;24449;-59
2021/10/26 05:33:29;;;;;;;18.27;16.13;;;;;;;;;;5094391;28;25133;-58
2021/10/26 05:35:54;;;;;;;16.90;15.17;;;;;;;;;;5101571;28;25294;-59
2021/10/26 05:38:19;;;;;;;17.75;15.98;;;;;;;;;;5102807;28;24927;-59
2021/10/26 05:40:45;;;;;;;15.88;14.27;;;;;;;;;;5105133;28;24496;-58
2021/10/26 05:43:10;;;;;;;15.30;13.80;;;;;;;;;;5105379;28;24402;-58
2021/10/26 05:45:35;;;;;;;16.92;15.13;;;;;;;;;;5099858;28;24543;-58
2021/10/26 05:48:00;;;;;;;15.88;14.18;;;;;;;;;;5099126;28;24940;-59
2021/10/26 05:50:25;;;;;;;17.53;15.17;;;;;;;;;;5101257;28;24942;-58
2021/10/26 05:52:50;;;;;;;16.27;14.57;;;;;;;;;;5105073;28;24486;-59
2021/10/26 05:55:15;;;;;;;16.05;14.30;;;;;;;;;;5103377;28;24424;-58
2021/10/26 05:57:41;;;;;;;17.40;15.33;;;;;;;;;;5104672;28;24466;-59
2021/10/26 06:00:06;;;;;;;17.50;13.57;;;;;;;;;;5101089;28;24397;-58
2021/10/26 06:02:32;;;;;;;15.73;14.13;;;;;;;;;;5099281;28;24394;-59
2021/10/26 06:04:57;;;;;;;16.48;14.00;;;;;;;;;;5099108;28;24405;-59
2021/10/26 06:07:22;;;;;;;18.70;15.00;;;;;;;;;;5103090;28;24418;-59
2021/10/26 06:09:47;;;;;;;15.07;13.57;;;;;;;;;;5104500;28;24792;-59
2021/10/26 06:12:18;;;;;;;15.27;13.77;;;;;;;;;;5103220;28;24499;-59
2021/10/26 06:14:45;;;;;;;17.27;15.48;;;;;;;;;;5100870;28;24882;-59
2021/10/26 06:17:10;;;;;;;16.52;14.82;;;;;;;;;;5100862;28;24390;-59
2021/10/26 06:19:35;;;;;;;17.38;15.05;;;;;;;;;;5099367;28;24856;-58
2021/10/26 06:22:00;;;;;;;18.63;16.10;;;;;;;;;;5100674;28;24408;-58
2021/10/26 06:24:25;;;;;;;16.40;14.80;;;;;;;;;;5104744;28;24954;-59
2021/10/26 06:26:51;;;;;;;17.17;15.38;;;;;;;;;;5104936;28;24390;-60
2021/10/26 06:29:16;;;;;;;17.10;15.30;;;;;;;;;;5100787;28;24426;-59
2021/10/26 06:31:41;;;;;;;16.17;14.57;;;;;;;;;;5098597;28;24462;-59
2021/10/26 06:34:06;;;;;;;17.15;15.35;;;;;;;;;;5080399;28;24440;-59
2021/10/26 06:36:32;;;;;;;18.00;16.10;;;;;;;;;;5082447;28;24429;-59
2021/10/26 06:38:57;;;;;;;17.93;15.00;;;;;;;;;;5083493;28;24997;-59
2021/10/26 06:41:22;;;;;;;17.88;15.27;;;;;;;;;;5082509;28;24447;-59
2021/10/26 06:43:48;;;;;;;19.00;15.87;;;;;;;;;;5082101;28;24756;-58
2021/10/26 06:46:13;;;;;;;18.30;16.13;;;;;;;;;;5080390;28;24414;-58
2021/10/26 06:48:39;;;;;;;16.67;14.70;;;;;;;;;;5078055;28;24409;-59
2021/10/26 06:51:04;;;;;;;18.23;15.70;;;;;;;;;;5079148;28;24812;-60
2021/10/26 06:53:29;;;;;;;17.97;14.93;;;;;;;;;;5082176;28;24691;-59
2021/10/26 06:55:58;;;;;;;15.10;13.60;;;;;;;;;;5083940;28;25183;-59
2021/10/26 06:58:23;;;;;;;16.27;14.57;;;;;;;;;;5081936;28;24383;-59
2021/10/26 07:00:48;;;;;;;17.05;15.25;;;;;;;;;;5078024;28;24456;-59
2021/10/26 07:03:13;;;;;;;17.95;16.15;;;;;;;;;;5079849;28;24434;-60
2021/10/26 07:05:39;;;;;;;16.40;14.70;;;;;;;;;;5080025;28;24960;-59
2021/10/26 07:08:04;;;;;;;16.77;14.97;;;;;;;;;;5081571;28;24461;-59
2021/10/26 07:10:29;;;;;;;16.90;15.20;;;;;;;;;;5081969;28;24394;-59
2021/10/26 07:12:55;;;;;;;16.30;14.60;;;;;;;;;;5083466;28;24383;-59
2021/10/26 07:15:20;;;;;;;15.60;14.00;;;;;;;;;;5077865;28;24423;-60
2021/10/26 07:17:46;;;;;;;16.40;14.10;;;;;;;;;;5078017;28;24399;-59
2021/10/26 07:20:12;;;;;;;16.83;15.13;;;;;;;;;;5080397;28;24393;-60
2021/10/26 07:22:38;;;;;;;18.55;15.45;;;;;;;;;;5083551;28;24395;-59
2021/10/26 07:25:06;;;;;;;19.73;15.27;;;;;;;;;;5083380;28;24486;-59
2021/10/26 07:27:32;;;;;;;17.05;15.20;;;;;;;;;;5081714;28;24830;-59
2021/10/26 07:29:57;;;;;;;17.33;15.52;;;;;;;;;;5079284;28;24756;-59
2021/10/26 07:32:23;;;;;;;17.77;15.60;;;;;;;;;;5083204;28;24971;-59
2021/10/26 07:34:48;;;;;;;16.93;15.17;;;;;;;;;;5101960;28;24417;-60
2021/10/26 07:37:15;;;;;;;17.17;15.38;;;;;;;;;;5099901;28;24552;-60
2021/10/26 07:39:46;;;;;;;16.52;14.90;;;;;;;;;;5103261;28;24532;-59
2021/10/26 07:42:12;;;;;;;17.63;14.13;;;;;;;;;;5103335;28;24477;-59
2021/10/26 07:44:37;;;;;;;16.10;14.50;;;;;;;;;;5099620;28;24923;-60
2021/10/26 07:47:03;;;;;;;16.63;14.87;;;;;;;;;;5099845;28;24433;-59
2021/10/26 07:49:32;;;;;;;17.63;15.57;;;;;;;;;;5100032;28;24404;-59
2021/10/26 07:51:58;;;;;;;15.93;14.33;;;;;;;;;;5101711;28;24416;-60
2021/10/26 07:54:23;;;;;;;15.15;13.65;;;;;;;;;;5102013;28;24413;-59
2021/10/26 07:56:48;;;;;;;18.33;16.00;;;;;;;;;;5103436;28;24752;-59
2021/10/26 07:59:13;;;;;;;16.40;14.70;;;;;;;;;;5099954;28;24447;-59
2021/10/26 08:01:39;;;;;;;16.73;14.93;;;;;;;;;;5099394;28;24430;-59
2021/10/26 08:04:05;;;;;;;19.05;16.48;;;;;;;;;;5103622;28;24469;-59
2021/10/26 08:06:30;;;;;;;17.98;15.38;;;;;;;;;;5105837;28;24827;-59
2021/10/26 08:08:55;;;;;;;17.20;15.40;;;;;;;;;;5101791;28;24474;-59
2021/10/26 08:11:20;;;;;;;16.90;14.80;;;;;;;;;;5107114;28;24951;-59
2021/10/26 08:13:46;;;;;;;16.50;14.27;;;;;;;;;;5105876;28;24486;-59
2021/10/26 08:16:12;;;;;;;17.87;14.67;;;;;;;;;;5106137;28;24954;-59
2021/10/26 08:18:38;;;;;;;16.60;14.35;;;;;;;;;;5104907;28;24741;-59
2021/10/26 08:21:03;;;;;;;15.57;13.97;;;;;;;;;;5103037;28;24414;-59
2021/10/26 08:23:28;;;;;;;17.40;15.43;;;;;;;;;;5101609;28;25013;-59
2021/10/26 08:25:57;;;;;;;16.63;14.90;;;;;;;;;;5105200;28;24386;-59
2021/10/26 08:28:23;;;;;;;18.40;15.85;;;;;;;;;;5106543;28;24405;-60
2021/10/26 08:30:52;;;;;;;18.38;16.15;;;;;;;;;;5106625;28;24398;-59
2021/10/26 08:36:10;;;;;;;17.75;15.68;;;;;;;;;;5065895;28;24422;-57
2021/10/26 08:38:35;;;;;;;16.97;15.27;;;;;;;;;;5080430;28;24753;-58
2021/10/26 08:41:00;;;;;;;16.50;14.70;;;;;;;;;;5082523;28;24394;-58
2021/10/26 08:43:26;;;;;;;17.70;15.80;;;;;;;;;;5086286;28;24406;-58
2021/10/26 08:45:52;;;;;;;18.20;16.40;;;;;;;;;;5086034;28;24448;-58
2021/10/26 08:48:21;;;;;;;17.13;15.43;;;;;;;;;;5080388;28;24393;-58
2021/10/26 08:50:48;;;;;;;16.98;15.27;;;;;;;;;;5080465;28;24397;-58
2021/10/26 08:53:13;;;;;;;19.23;16.67;;;;;;;;;;5082426;28;24955;-58
2021/10/26 08:55:38;;;;;;;18.40;16.50;;;;;;;;;;5083930;28;24422;-58
2021/10/26 08:58:06;;;;;;;19.10;17.00;;;;;;;;;;5085636;28;24448;-58
2021/10/26 09:00:31;;;;;;;19.43;17.33;;;;;;;;;;5084310;28;25622;-58
2021/10/26 09:02:56;;;;;;;18.47;16.57;;;;;;;;;;5084320;28;24527;-58
2021/10/26 09:05:24;;;;;;;18.10;15.90;;;;;;;;;;5080434;28;24462;-59
2021/10/26 09:08:00;;;;;;;17.65;15.85;;;;;;;;;;5082118;28;24440;-59
2021/10/26 09:10:26;;;;;;;18.30;16.25;;;;;;;;;;5083595;28;24398;-59
2021/10/26 09:18:32;;;;;;;19.73;17.20;;;;;;;;;;5083748;28;24750;-59
2021/10/26 09:20:57;;;;;;;22.00;18.67;;;;;;;;;;5081661;28;24421;-58
2021/10/26 09:23:27;;;;;;;18.45;15.80;;;;;;;;;;5080010;28;24938;-59
2021/10/26 09:25:59;;;;;;;18.57;16.57;;;;;;;;;;5081620;28;24938;-59
2021/10/26 09:28:25;;;;;;;18.10;16.20;;;;;;;;;;5085431;28;24418;-58
2021/10/26 09:30:58;;;;;;;17.98;15.48;;;;;;;;;;5085266;28;24736;-58
2021/10/26 09:33:37;;;;;;;18.80;17.00;;;;;;;;;;5097568;28;24494;-58
2021/10/26 09:36:21;;;;;;;18.48;16.58;;;;;;;;;;5101864;28;24448;-58
2021/10/26 09:38:46;;;;;;;20.17;18.07;;;;;;;;;;5099680;28;24981;-59
2021/10/26 09:41:12;;;;;;;16.30;14.70;;;;;;;;;;5101752;28;24439;-59
2021/10/26 09:43:37;;;;;;;16.42;14.82;;;;;;;;;;5105406;28;24756;-58
2021/10/26 09:46:03;;;;;;;17.77;15.90;;;;;;;;;;5105280;28;24473;-59
2021/10/26 09:48:31;;;;;;;20.38;18.27;;;;;;;;;;5103757;28;24389;-59
2021/10/26 09:51:08;;;;;;;18.30;16.50;;;;;;;;;;5101740;28;24902;-59
2021/10/26 09:53:34;;;;;;;18.85;16.85;;;;;;;;;;5099868;28;24389;-59
2021/10/26 09:56:01;;;;;;;19.13;17.33;;;;;;;;;;5101461;28;24962;-59
2021/10/26 09:58:29;;;;;;;20.35;18.15;;;;;;;;;;5105545;28;24524;-58
2021/10/26 10:01:04;;;;;;;22.37;19.97;;;;;;;;;;5104886;28;24548;-58
2021/10/26 10:03:29;;;;;;;20.02;18.10;;;;;;;;;;5103700;28;24382;-58
2021/10/26 10:05:56;;;;;;;21.63;18.10;;;;;;;;;;5099404;28;25027;-58
2021/10/26 10:08:24;;;;;;;19.63;17.38;;;;;;;;;;5097885;28;24397;-59
2021/10/26 10:10:53;;;;;;;20.08;18.00;;;;;;;;;;5102703;28;24798;-58
2021/10/26 10:13:18;;;;;;;18.63;16.80;;;;;;;;;;5103232;28;24402;-59
2021/10/26 10:15:44;;;;;;;19.33;17.33;;;;;;;;;;5105241;28;24421;-59
2021/10/26 10:18:10;;;;;;;19.10;17.20;;;;;;;;;;5101073;28;24531;-59
2021/10/26 10:20:35;;;;;;;21.70;19.60;;;;;;;;;;5098924;28;24546;-59
2021/10/26 10:23:01;;;;;;;25.17;21.20;;;;;;;;;;5100943;28;24536;-59
2021/10/26 10:25:28;;;;;;;20.88;18.77;;;;;;;;;;5100897;28;24416;-58
2021/10/26 10:27:56;;;;;;;19.38;17.48;;;;;;;;;;5104630;28;24478;-58
2021/10/26 10:30:21;;;;;;;19.90;17.90;;;;;;;;;;5102828;28;24516;-58
2021/10/26 10:32:47;;;;;;;19.88;17.80;;;;;;;;;;5091601;28;24919;-58
2021/10/26 10:35:14;;;;;;;20.30;17.60;;;;;;;;;;5080722;28;24418;-59
2021/10/26 10:37:41;;;;;;;20.25;18.25;;;;;;;;;;5078656;28;24536;-58
2021/10/26 10:40:07;;;;;;;19.75;17.75;;;;;;;;;;5082071;28;24478;-58
2021/10/26 10:42:43;;;;;;;21.00;18.80;;;;;;;;;;5082406;28;24397;-58
2021/10/26 10:45:20;;;;;;;17.73;16.02;;;;;;;;;;5083736;28;24448;-58
2021/10/26 10:47:47;;;;;;;20.60;18.50;;;;;;;;;;5078683;28;24393;-59
2021/10/26 10:50:18;;;;;;;21.60;19.17;;;;;;;;;;5078063;28;24761;-59
2021/10/26 10:52:44;;;;;;;22.33;19.70;;;;;;;;;;5082524;28;24387;-59
2021/10/26 10:55:22;;;;;;;20.80;18.60;;;;;;;;;;5081846;28;24433;-59
2021/10/26 10:57:48;;;;;;;19.70;17.70;;;;;;;;;;5083758;28;24737;-59
2021/10/26 11:00:42;;;;;;;20.23;18.23;;;;;;;;;;5081652;28;24406;-59
2021/10/26 11:03:27;;;;;;;18.90;16.92;;;;;;;;;;5076797;28;24426;-59
2021/10/26 11:05:52;;;;;;;21.15;19.17;;;;;;;;;;5078178;28;24402;-59
2021/10/26 11:08:37;;;;;;;21.70;19.50;;;;;;;;;;5077968;28;24430;-59
2021/10/26 11:11:02;;;;;;;19.00;17.20;;;;;;;;;;5079544;28;24406;-59
2021/10/26 11:13:29;;;;;;;19.50;17.50;;;;;;;;;;5083875;28;24386;-59
2021/10/26 11:15:55;;;;;;;19.40;17.50;;;;;;;;;;5083654;28;24946;-57
2021/10/26 11:18:29;;;;;;;16.75;15.05;;;;;;;;;;5078183;28;24476;-58
2021/10/26 11:20:54;;;;;;;20.90;18.85;;;;;;;;;;5077455;28;24994;-58
2021/10/26 11:23:32;;;;;;;21.10;19.00;;;;;;;;;;5079760;28;24425;-58
2021/10/26 11:25:58;;;;;;;20.90;18.77;;;;;;;;;;5071192;28;24537;-58
2021/10/26 11:28:25;;;;;;;20.02;18.02;;;;;;;;;;5079606;28;24452;-58
2021/10/26 11:30:51;;;;;;;22.25;19.95;;;;;;;;;;5086901;28;24447;-58
2021/10/26 11:33:16;;;;;;;23.35;19.38;;;;;;;;;;5102016;28;24489;-58
2021/10/26 11:35:51;;;;;;;18.60;16.60;;;;;;;;;;5098120;28;24432;-58
2021/10/26 11:38:22;;;;;;;17.38;15.68;;;;;;;;;;5101972;28;24401;-58
2021/10/26 11:40:55;;;;;;;20.80;18.70;;;;;;;;;;5107570;28;24923;-59
2021/10/26 11:43:21;;;;;;;19.63;17.67;;;;;;;;;;5107356;28;24393;-58
2021/10/26 11:45:57;;;;;;;17.97;16.20;;;;;;;;;;5107898;28;24382;-59
2021/10/26 11:48:42;;;;;;;22.02;19.63;;;;;;;;;;5105741;28;24393;-58
2021/10/26 11:51:34;;;;;;;22.33;19.20;;;;;;;;;;5103506;28;24390;-59
2021/10/26 11:54:02;;;;;;;21.70;19.20;;;;;;;;;;5092977;28;24529;-58
2021/10/26 11:56:32;;;;;;;20.20;17.83;;;;;;;;;;5105690;28;24812;-58
2021/10/26 11:58:58;;;;;;;21.92;19.73;;;;;;;;;;5107158;28;24397;-59
2021/10/26 12:01:34;;;;;;;19.67;17.77;;;;;;;;;;5105453;28;24472;-59
2021/10/26 12:04:00;;;;;;;20.87;18.67;;;;;;;;;;5107167;28;24389;-59
2021/10/26 12:06:29;;;;;;;19.45;17.50;;;;;;;;;;5101769;28;24772;-59
2021/10/26 12:08:56;;;;;;;19.70;17.70;;;;;;;;;;5101668;28;24385;-59
2021/10/26 12:11:28;;;;;;;19.08;17.17;;;;;;;;;;5105205;28;25011;-59
2021/10/26 12:14:12;;;;;;;21.20;18.90;;;;;;;;;;5106917;28;24433;-59
2021/10/26 12:16:37;;;;;;;18.83;17.00;;;;;;;;;;5107102;28;24402;-59
2021/10/26 12:19:02;;;;;;;19.33;17.43;;;;;;;;;;5107012;28;24400;-59
2021/10/26 12:21:28;;;;;;;18.57;16.77;;;;;;;;;;5101468;28;25022;-59
2021/10/26 12:23:53;;;;;;;20.52;18.55;;;;;;;;;;5101422;28;24996;-59
2021/10/26 12:26:19;;;;;;;18.47;16.77;;;;;;;;;;5103390;28;24405;-58
2021/10/26 12:28:54;;;;;;;22.85;20.60;;;;;;;;;;5106435;28;24409;-58
2021/10/26 12:31:19;;;;;;;21.40;19.40;;;;;;;;;;5096149;28;24426;-59
2021/10/26 12:33:44;;;;;;;20.80;18.70;;;;;;;;;;5086546;28;24409;-60
2021/10/26 12:36:10;;;;;;;17.08;15.38;;;;;;;;;;5082702;28;25000;-60
2021/10/26 12:38:36;;;;;;;19.03;17.23;;;;;;;;;;5080827;28;24391;-58
2021/10/26 12:41:13;;;;;;;18.15;16.25;;;;;;;;;;5080302;28;24948;-58
2021/10/26 12:43:38;;;;;;;18.00;16.10;;;;;;;;;;5084750;28;24502;-58
2021/10/26 12:46:16;;;;;;;18.27;16.37;;;;;;;;;;5086188;28;24817;-58
2021/10/26 12:48:41;;;;;;;17.75;15.95;;;;;;;;;;5084494;28;24416;-58
2021/10/26 12:51:09;;;;;;;18.20;16.40;;;;;;;;;;5082381;28;25031;-59
2021/10/26 12:53:34;;;;;;;18.60;16.70;;;;;;;;;;5080637;28;24757;-58
2021/10/26 12:56:00;;;;;;;16.70;15.00;;;;;;;;;;5082090;28;24390;-58
2021/10/26 12:58:34;;;;;;;17.50;15.70;;;;;;;;;;5085939;28;24398;-58
2021/10/26 13:01:00;;;;;;;17.80;16.07;;;;;;;;;;5085418;28;24402;-58
2021/10/26 13:03:29;;;;;;;16.10;14.50;;;;;;;;;;5083828;28;24440;-58
2021/10/26 13:06:03;;;;;;;14.32;12.93;;;;;;;;;;5081946;28;24475;-58
2021/10/26 13:08:28;;;;;;;16.00;14.50;;;;;;;;;;5080155;28;24508;-59
2021/10/26 13:10:53;;;;;;;16.80;15.10;;;;;;;;;;5081654;28;24394;-58
2021/10/26 13:13:19;;;;;;;17.60;15.93;;;;;;;;;;5083676;28;24506;-59
2021/10/26 13:15:48;;;;;;;21.25;19.05;;;;;;;;;;5085678;28;24460;-58
2021/10/26 13:18:22;;;;;;;19.75;17.65;;;;;;;;;;5083633;28;24425;-59
2021/10/26 13:20:51;;;;;;;20.73;18.63;;;;;;;;;;5081631;28;24399;-59
2021/10/26 13:23:16;;;;;;;17.77;15.97;;;;;;;;;;5082103;28;24398;-58
2021/10/26 13:25:45;;;;;;;14.95;13.55;;;;;;;;;;5081727;28;24435;-59
2021/10/26 13:28:12;;;;;;;16.30;14.60;;;;;;;;;;5083484;28;24451;-59
2021/10/26 13:30:56;;;;;;;15.95;14.35;;;;;;;;;;5087292;28;24397;-59
2021/10/26 13:33:22;;;;;;;19.90;17.80;;;;;;;;;;5103479;28;24447;-59
2021/10/26 13:35:48;;;;;;;17.90;16.05;;;;;;;;;;5101889;28;24483;-59
2021/10/26 13:38:14;;;;;;;17.00;15.30;;;;;;;;;;5101736;28;25022;-58
2021/10/26 13:40:42;;;;;;;19.20;17.20;;;;;;;;;;5101579;28;24802;-59
2021/10/26 13:43:09;;;;;;;14.82;13.30;;;;;;;;;;5105176;28;24939;-58
2021/10/26 13:45:34;;;;;;;19.13;17.13;;;;;;;;;;5103410;28;24980;-59
2021/10/26 13:48:00;;;;;;;18.40;16.50;;;;;;;;;;5104849;28;24492;-59
2021/10/26 13:50:25;;;;;;;19.23;17.33;;;;;;;;;;5101337;28;24543;-59
2021/10/26 13:52:50;;;;;;;15.30;13.80;;;;;;;;;;5099710;28;24407;-59
2021/10/26 13:55:16;;;;;;;18.03;16.33;;;;;;;;;;5101379;28;24425;-59
2021/10/26 13:57:41;;;;;;;17.13;15.43;;;;;;;;;;5104861;28;24397;-59
2021/10/26 14:00:10;;;;;;;20.40;18.40;;;;;;;;;;5104304;28;24735;-58
2021/10/26 14:02:37;;;;;;;17.60;15.80;;;;;;;;;;5103398;28;24861;-59
2021/10/26 14:05:03;;;;;;;14.35;13.02;;;;;;;;;;5102725;28;24390;-58
2021/10/26 14:07:29;;;;;;;17.40;15.60;;;;;;;;;;5099396;28;25011;-59
2021/10/26 14:09:54;;;;;;;16.00;14.40;;;;;;;;;;5099086;28;24411;-59
2021/10/26 14:12:19;;;;;;;17.77;15.98;;;;;;;;;;5104830;28;24466;-59
2021/10/26 14:14:44;;;;;;;16.10;14.60;;;;;;;;;;5104615;28;24425;-60
2021/10/26 14:17:09;;;;;;;16.70;15.13;;;;;;;;;;5104549;28;24551;-59
2021/10/26 14:19:34;;;;;;;18.40;16.60;;;;;;;;;;5100988;28;24748;-59
2021/10/26 14:21:59;;;;;;;17.77;15.98;;;;;;;;;;5098751;28;24979;-59
2021/10/26 14:24:27;;;;;;;17.10;15.40;;;;;;;;;;5100891;28;24401;-59